Main page
METAR-TAF:

METAR-TAF

Airports :

Gombe Lawanti International Airport

Gombe, Nigeria

latitude: 10-18-19N, longitude: 10-54-31E, elevation: 505 m

METAR: missing

Time: 22:22 (21:22 UTC)

Forecast

The report was made 4 hours and 27 minutes ago, at 16:55 UTC
Forecast valid from 05 at 18 UTC to 06 at 24 UTC
Wind 9 kt from the Southwest
Visibility 10 km or more
no clouds below 1500 m and no cumulonimbus
Temporary
from 06 at 14 UTC to 06 at 18 UTC
Scattered clouds at a height of 1300 ft
Few clouds at a height of 2000 ft, Cumulonimbus.
thunderstorm

TAF: DNGO 051655Z 0518/0624 23009KT CAVOK TEMPO 0614/0618 TS SCT013 FEW020CB

Weather observations and forecasts of more than 4000 airports (METAR and TAF reports).

The available stations are represented by yellow and red dots on the map.

Hover mouse over dot to see the name of the station.

Then click to see weather observations and forecasts.

To change the map : click on the green buttons with a black cross to zoom in, on the green button with a dash to zoom out, or on the green arrows for adjacent maps.


METAR-TAF: